sensor_id;sensor_type;location;lat;lon;timestamp;P1;durP1;ratioP1;P2;durP2;ratioP2
7511;SDS011;9999;48.780;9.146;2022-07-22T00:01:31;2.47;;;2.17;;
7511;SDS011;9999;48.780;9.146;2022-07-22T00:03:58;2.40;;;2.20;;
7511;SDS011;9999;48.780;9.146;2022-07-22T00:06:26;3.90;;;2.67;;
7511;SDS011;9999;48.780;9.146;2022-07-22T00:08:55;4.28;;;2.58;;
7511;SDS011;9999;48.780;9.146;2022-07-22T00:11:22;3.25;;;2.75;;
7511;SDS011;9999;48.780;9.146;2022-07-22T00:13:49;8.25;;;2.40;;
7511;SDS011;9999;48.780;9.146;2022-07-22T00:16:16;2.95;;;2.47;;
7511;SDS011;9999;48.780;9.146;2022-07-22T00:18:42;2.45;;;1.85;;
7511;SDS011;9999;48.780;9.146;2022-07-22T00:21:09;2.67;;;2.42;;
7511;SDS011;9999;48.780;9.146;2022-07-22T00:23:36;2.38;;;2.17;;
7511;SDS011;9999;48.780;9.146;2022-07-22T00:26:04;2.42;;;2.28;;
7511;SDS011;9999;48.780;9.146;2022-07-22T00:28:31;2.30;;;2.10;;
7511;SDS011;9999;48.780;9.146;2022-07-22T00:30:58;2.97;;;2.53;;
7511;SDS011;9999;48.780;9.146;2022-07-22T00:33:25;2.13;;;1.98;;
7511;SDS011;9999;48.780;9.146;2022-07-22T00:35:52;3.22;;;2.92;;
7511;SDS011;9999;48.780;9.146;2022-07-22T00:38:19;3.63;;;2.35;;
7511;SDS011;9999;48.780;9.146;2022-07-22T00:40:46;2.38;;;2.05;;
7511;SDS011;9999;48.780;9.146;2022-07-22T00:43:14;2.60;;;2.30;;
7511;SDS011;9999;48.780;9.146;2022-07-22T00:45:41;2.65;;;2.28;;
7511;SDS011;9999;48.780;9.146;2022-07-22T00:48:07;2.35;;;2.13;;
7511;SDS011;9999;48.780;9.146;2022-07-22T00:50:34;3.05;;;2.47;;
7511;SDS011;9999;48.780;9.146;2022-07-22T00:53:01;2.78;;;2.55;;
7511;SDS011;9999;48.780;9.146;2022-07-22T00:55:28;6.53;;;2.75;;
7511;SDS011;9999;48.780;9.146;2022-07-22T00:57:55;2.72;;;2.13;;
7511;SDS011;9999;48.780;9.146;2022-07-22T01:00:23;4.07;;;2.92;;
7511;SDS011;9999;48.780;9.146;2022-07-22T01:02:53;2.83;;;2.45;;
7511;SDS011;9999;48.780;9.146;2022-07-22T01:05:20;3.95;;;2.30;;
7511;SDS011;9999;48.780;9.146;2022-07-22T01:07:47;3.42;;;2.22;;
7511;SDS011;9999;48.780;9.146;2022-07-22T01:10:14;8.60;;;2.70;;
7511;SDS011;9999;48.780;9.146;2022-07-22T01:12:41;3.53;;;2.60;;
7511;SDS011;9999;48.780;9.146;2022-07-22T01:15:09;4.53;;;2.78;;
7511;SDS011;9999;48.780;9.146;2022-07-22T01:17:37;3.22;;;2.40;;
7511;SDS011;9999;48.780;9.146;2022-07-22T01:20:06;3.13;;;2.88;;
7511;SDS011;9999;48.780;9.146;2022-07-22T01:22:34;3.45;;;2.60;;
7511;SDS011;9999;48.780;9.146;2022-07-22T01:25:02;3.83;;;2.90;;
7511;SDS011;9999;48.780;9.146;2022-07-22T01:27:33;5.80;;;2.72;;
7511;SDS011;9999;48.780;9.146;2022-07-22T01:30:00;4.30;;;3.20;;
7511;SDS011;9999;48.780;9.146;2022-07-22T01:32:28;6.68;;;2.80;;
7511;SDS011;9999;48.780;9.146;2022-07-22T01:34:54;5.32;;;2.70;;
7511;SDS011;9999;48.780;9.146;2022-07-22T01:37:23;3.90;;;2.55;;
7511;SDS011;9999;48.780;9.146;2022-07-22T01:39:50;9.93;;;2.60;;
7511;SDS011;9999;48.780;9.146;2022-07-22T01:42:17;3.33;;;2.78;;
7511;SDS011;9999;48.780;9.146;2022-07-22T01:44:44;4.50;;;3.03;;
7511;SDS011;9999;48.780;9.146;2022-07-22T01:47:11;5.60;;;2.42;;
7511;SDS011;9999;48.780;9.146;2022-07-22T01:49:37;3.92;;;3.10;;
7511;SDS011;9999;48.780;9.146;2022-07-22T01:52:05;4.68;;;2.17;;
7511;SDS011;9999;48.780;9.146;2022-07-22T01:54:33;2.20;;;2.00;;
7511;SDS011;9999;48.780;9.146;2022-07-22T01:57:00;4.50;;;2.58;;
7511;SDS011;9999;48.780;9.146;2022-07-22T01:59:28;4.15;;;3.17;;
7511;SDS011;9999;48.780;9.146;2022-07-22T02:01:55;3.72;;;2.33;;
7511;SDS011;9999;48.780;9.146;2022-07-22T02:04:23;3.40;;;2.83;;
7511;SDS011;9999;48.780;9.146;2022-07-22T02:06:50;3.88;;;2.45;;
7511;SDS011;9999;48.780;9.146;2022-07-22T02:09:17;2.85;;;2.47;;
7511;SDS011;9999;48.780;9.146;2022-07-22T02:11:49;3.75;;;2.63;;
7511;SDS011;9999;48.780;9.146;2022-07-22T02:14:16;4.45;;;2.97;;
7511;SDS011;9999;48.780;9.146;2022-07-22T02:16:43;3.63;;;2.97;;
7511;SDS011;9999;48.780;9.146;2022-07-22T02:19:10;3.92;;;3.15;;
7511;SDS011;9999;48.780;9.146;2022-07-22T02:21:37;4.88;;;3.28;;
7511;SDS011;9999;48.780;9.146;2022-07-22T02:24:04;3.13;;;2.83;;
7511;SDS011;9999;48.780;9.146;2022-07-22T02:26:31;3.67;;;3.30;;
7511;SDS011;9999;48.780;9.146;2022-07-22T02:29:01;3.58;;;3.08;;
7511;SDS011;9999;48.780;9.146;2022-07-22T02:31:28;4.00;;;3.17;;
7511;SDS011;9999;48.780;9.146;2022-07-22T02:33:55;3.92;;;3.20;;
7511;SDS011;9999;48.780;9.146;2022-07-22T02:36:24;3.22;;;2.90;;
7511;SDS011;9999;48.780;9.146;2022-07-22T02:38:51;2.83;;;2.50;;
7511;SDS011;9999;48.780;9.146;2022-07-22T02:41:18;3.88;;;3.08;;
7511;SDS011;9999;48.780;9.146;2022-07-22T02:43:50;5.72;;;2.90;;
7511;SDS011;9999;48.780;9.146;2022-07-22T02:46:20;4.25;;;3.17;;
7511;SDS011;9999;48.780;9.146;2022-07-22T02:48:47;4.15;;;2.97;;
7511;SDS011;9999;48.780;9.146;2022-07-22T02:51:16;3.67;;;2.60;;
7511;SDS011;9999;48.780;9.146;2022-07-22T02:53:44;3.40;;;2.83;;
7511;SDS011;9999;48.780;9.146;2022-07-22T02:56:10;3.67;;;2.85;;
7511;SDS011;9999;48.780;9.146;2022-07-22T02:58:38;3.55;;;3.10;;
7511;SDS011;9999;48.780;9.146;2022-07-22T03:01:05;3.20;;;2.85;;
7511;SDS011;9999;48.780;9.146;2022-07-22T03:03:43;3.45;;;2.78;;
7511;SDS011;9999;48.780;9.146;2022-07-22T03:06:10;3.03;;;2.67;;
7511;SDS011;9999;48.780;9.146;2022-07-22T03:08:44;3.45;;;2.72;;
7511;SDS011;9999;48.780;9.146;2022-07-22T03:11:13;4.93;;;2.95;;
7511;SDS011;9999;48.780;9.146;2022-07-22T03:13:40;6.07;;;3.65;;
7511;SDS011;9999;48.780;9.146;2022-07-22T03:16:07;5.07;;;3.28;;
7511;SDS011;9999;48.780;9.146;2022-07-22T03:18:35;3.15;;;2.55;;
7511;SDS011;9999;48.780;9.146;2022-07-22T03:21:03;4.30;;;2.83;;
7511;SDS011;9999;48.780;9.146;2022-07-22T03:23:30;5.05;;;3.20;;
7511;SDS011;9999;48.780;9.146;2022-07-22T03:25:57;3.55;;;3.20;;
7511;SDS011;9999;48.780;9.146;2022-07-22T03:28:24;4.97;;;2.78;;
7511;SDS011;9999;48.780;9.146;2022-07-22T03:30:52;6.32;;;3.22;;
7511;SDS011;9999;48.780;9.146;2022-07-22T03:33:19;6.60;;;4.78;;
7511;SDS011;9999;48.780;9.146;2022-07-22T03:35:46;4.43;;;3.40;;
7511;SDS011;9999;48.780;9.146;2022-07-22T03:38:14;5.18;;;3.10;;
7511;SDS011;9999;48.780;9.146;2022-07-22T03:40:42;3.05;;;2.72;;
7511;SDS011;9999;48.780;9.146;2022-07-22T03:43:09;3.50;;;3.20;;
7511;SDS011;9999;48.780;9.146;2022-07-22T03:45:37;6.22;;;3.42;;
7511;SDS011;9999;48.780;9.146;2022-07-22T03:48:05;5.43;;;3.38;;
7511;SDS011;9999;48.780;9.146;2022-07-22T03:50:36;4.13;;;3.08;;
7511;SDS011;9999;48.780;9.146;2022-07-22T03:53:04;4.82;;;3.15;;
7511;SDS011;9999;48.780;9.146;2022-07-22T03:55:35;3.85;;;3.47;;
7511;SDS011;9999;48.780;9.146;2022-07-22T03:58:04;6.32;;;3.70;;
7511;SDS011;9999;48.780;9.146;2022-07-22T04:00:31;4.05;;;2.58;;
7511;SDS011;9999;48.780;9.146;2022-07-22T04:03:01;4.93;;;3.50;;
7511;SDS011;9999;48.780;9.146;2022-07-22T04:05:47;4.18;;;3.17;;
7511;SDS011;9999;48.780;9.146;2022-07-22T04:08:21;4.18;;;3.33;;
7511;SDS011;9999;48.780;9.146;2022-07-22T04:10:49;5.95;;;3.53;;
7511;SDS011;9999;48.780;9.146;2022-07-22T04:13:15;4.93;;;3.30;;
7511;SDS011;9999;48.780;9.146;2022-07-22T04:15:53;3.92;;;3.10;;
7511;SDS011;9999;48.780;9.146;2022-07-22T04:18:19;4.70;;;2.78;;
7511;SDS011;9999;48.780;9.146;2022-07-22T04:20:46;5.65;;;3.67;;
7511;SDS011;9999;48.780;9.146;2022-07-22T04:23:42;5.05;;;2.90;;
7511;SDS011;9999;48.780;9.146;2022-07-22T04:26:15;5.28;;;2.90;;
7511;SDS011;9999;48.780;9.146;2022-07-22T04:28:42;5.03;;;3.10;;
7511;SDS011;9999;48.780;9.146;2022-07-22T04:31:09;3.97;;;2.90;;
7511;SDS011;9999;48.780;9.146;2022-07-22T04:33:38;5.10;;;3.00;;
7511;SDS011;9999;48.780;9.146;2022-07-22T04:36:05;4.32;;;2.78;;
7511;SDS011;9999;48.780;9.146;2022-07-22T04:38:33;7.55;;;3.33;;
7511;SDS011;9999;48.780;9.146;2022-07-22T04:41:02;4.35;;;2.55;;
7511;SDS011;9999;48.780;9.146;2022-07-22T04:43:31;3.80;;;3.00;;
7511;SDS011;9999;48.780;9.146;2022-07-22T04:45:58;6.72;;;3.30;;
7511;SDS011;9999;48.780;9.146;2022-07-22T04:48:29;4.07;;;3.67;;
7511;SDS011;9999;48.780;9.146;2022-07-22T04:50:57;12.93;;;3.20;;
7511;SDS011;9999;48.780;9.146;2022-07-22T04:53:26;6.93;;;3.53;;
7511;SDS011;9999;48.780;9.146;2022-07-22T04:55:53;4.28;;;3.30;;
7511;SDS011;9999;48.780;9.146;2022-07-22T04:58:20;3.58;;;3.10;;
7511;SDS011;9999;48.780;9.146;2022-07-22T05:00:48;7.13;;;3.63;;
7511;SDS011;9999;48.780;9.146;2022-07-22T05:03:15;3.40;;;2.80;;
7511;SDS011;9999;48.780;9.146;2022-07-22T05:05:43;3.85;;;3.15;;
7511;SDS011;9999;48.780;9.146;2022-07-22T05:08:12;4.15;;;3.55;;
7511;SDS011;9999;48.780;9.146;2022-07-22T05:10:39;4.75;;;3.30;;
7511;SDS011;9999;48.780;9.146;2022-07-22T05:13:06;7.13;;;3.80;;
7511;SDS011;9999;48.780;9.146;2022-07-22T05:15:33;12.50;;;5.18;;
7511;SDS011;9999;48.780;9.146;2022-07-22T05:18:01;4.40;;;3.00;;
7511;SDS011;9999;48.780;9.146;2022-07-22T05:20:31;3.40;;;3.05;;
7511;SDS011;9999;48.780;9.146;2022-07-22T05:22:58;5.85;;;4.50;;
7511;SDS011;9999;48.780;9.146;2022-07-22T05:25:28;7.78;;;4.15;;
7511;SDS011;9999;48.780;9.146;2022-07-22T05:27:55;6.90;;;3.63;;
7511;SDS011;9999;48.780;9.146;2022-07-22T05:30:27;5.50;;;3.53;;
7511;SDS011;9999;48.780;9.146;2022-07-22T05:32:54;8.73;;;3.83;;
7511;SDS011;9999;48.780;9.146;2022-07-22T05:35:42;5.22;;;3.53;;
7511;SDS011;9999;48.780;9.146;2022-07-22T05:38:09;4.07;;;3.00;;
7511;SDS011;9999;48.780;9.146;2022-07-22T05:40:36;4.45;;;3.42;;
7511;SDS011;9999;48.780;9.146;2022-07-22T05:43:03;5.43;;;3.72;;
7511;SDS011;9999;48.780;9.146;2022-07-22T05:45:30;5.45;;;3.33;;
7511;SDS011;9999;48.780;9.146;2022-07-22T05:47:57;3.65;;;3.08;;
7511;SDS011;9999;48.780;9.146;2022-07-22T05:50:24;4.72;;;3.67;;
7511;SDS011;9999;48.780;9.146;2022-07-22T05:52:52;3.28;;;2.97;;
7511;SDS011;9999;48.780;9.146;2022-07-22T05:55:20;4.78;;;3.53;;
7511;SDS011;9999;48.780;9.146;2022-07-22T05:57:47;4.75;;;3.60;;
7511;SDS011;9999;48.780;9.146;2022-07-22T06:00:14;4.57;;;3.10;;
7511;SDS011;9999;48.780;9.146;2022-07-22T06:02:43;5.32;;;3.30;;
7511;SDS011;9999;48.780;9.146;2022-07-22T06:05:15;4.45;;;3.58;;
7511;SDS011;9999;48.780;9.146;2022-07-22T06:07:42;4.45;;;3.70;;
7511;SDS011;9999;48.780;9.146;2022-07-22T06:10:13;4.30;;;3.40;;
7511;SDS011;9999;48.780;9.146;2022-07-22T06:12:40;4.22;;;3.38;;
7511;SDS011;9999;48.780;9.146;2022-07-22T06:15:09;5.50;;;3.60;;
7511;SDS011;9999;48.780;9.146;2022-07-22T06:17:37;7.65;;;3.70;;
7511;SDS011;9999;48.780;9.146;2022-07-22T06:20:04;4.43;;;3.00;;
7511;SDS011;9999;48.780;9.146;2022-07-22T06:22:32;5.35;;;3.78;;
7511;SDS011;9999;48.780;9.146;2022-07-22T06:24:59;6.25;;;3.35;;
7511;SDS011;9999;48.780;9.146;2022-07-22T06:27:27;4.25;;;3.10;;
7511;SDS011;9999;48.780;9.146;2022-07-22T06:29:55;3.97;;;3.17;;
7511;SDS011;9999;48.780;9.146;2022-07-22T06:32:22;6.05;;;3.65;;
7511;SDS011;9999;48.780;9.146;2022-07-22T06:34:49;4.22;;;3.50;;
7511;SDS011;9999;48.780;9.146;2022-07-22T06:37:16;4.15;;;3.15;;
7511;SDS011;9999;48.780;9.146;2022-07-22T06:39:43;6.30;;;3.88;;
7511;SDS011;9999;48.780;9.146;2022-07-22T06:42:18;6.70;;;3.78;;
7511;SDS011;9999;48.780;9.146;2022-07-22T06:45:05;6.28;;;3.85;;
7511;SDS011;9999;48.780;9.146;2022-07-22T06:47:39;9.82;;;4.15;;
7511;SDS011;9999;48.780;9.146;2022-07-22T06:50:09;6.88;;;3.90;;
7511;SDS011;9999;48.780;9.146;2022-07-22T06:52:37;5.25;;;3.30;;
7511;SDS011;9999;48.780;9.146;2022-07-22T06:55:06;6.00;;;3.95;;
7511;SDS011;9999;48.780;9.146;2022-07-22T06:57:37;6.32;;;4.35;;
7511;SDS011;9999;48.780;9.146;2022-07-22T07:00:06;4.65;;;3.80;;
7511;SDS011;9999;48.780;9.146;2022-07-22T07:02:47;9.07;;;4.28;;
7511;SDS011;9999;48.780;9.146;2022-07-22T07:05:14;5.80;;;3.50;;
7511;SDS011;9999;48.780;9.146;2022-07-22T07:07:41;7.13;;;5.00;;
7511;SDS011;9999;48.780;9.146;2022-07-22T07:10:08;4.57;;;3.65;;
7511;SDS011;9999;48.780;9.146;2022-07-22T07:12:48;5.32;;;3.60;;
7511;SDS011;9999;48.780;9.146;2022-07-22T07:15:23;6.22;;;3.80;;
7511;SDS011;9999;48.780;9.146;2022-07-22T07:17:50;5.50;;;4.30;;
7511;SDS011;9999;48.780;9.146;2022-07-22T07:20:19;5.93;;;4.38;;
7511;SDS011;9999;48.780;9.146;2022-07-22T07:22:46;4.70;;;3.45;;
7511;SDS011;9999;48.780;9.146;2022-07-22T07:25:14;6.95;;;4.47;;
7511;SDS011;9999;48.780;9.146;2022-07-22T07:27:41;4.78;;;3.42;;
7511;SDS011;9999;48.780;9.146;2022-07-22T07:30:11;3.60;;;3.28;;
7511;SDS011;9999;48.780;9.146;2022-07-22T07:32:39;10.88;;;4.85;;
7511;SDS011;9999;48.780;9.146;2022-07-22T07:35:06;4.68;;;3.78;;
7511;SDS011;9999;48.780;9.146;2022-07-22T07:37:34;4.90;;;3.38;;
7511;SDS011;9999;48.780;9.146;2022-07-22T07:40:00;6.88;;;4.18;;
7511;SDS011;9999;48.780;9.146;2022-07-22T07:42:28;4.15;;;3.50;;
7511;SDS011;9999;48.780;9.146;2022-07-22T07:44:55;4.75;;;3.25;;
7511;SDS011;9999;48.780;9.146;2022-07-22T07:47:22;4.43;;;3.28;;
7511;SDS011;9999;48.780;9.146;2022-07-22T07:49:50;4.47;;;3.60;;
7511;SDS011;9999;48.780;9.146;2022-07-22T07:52:17;4.75;;;4.25;;
7511;SDS011;9999;48.780;9.146;2022-07-22T07:54:44;5.70;;;3.20;;
7511;SDS011;9999;48.780;9.146;2022-07-22T07:57:13;3.92;;;3.28;;
7511;SDS011;9999;48.780;9.146;2022-07-22T07:59:40;4.55;;;3.42;;
7511;SDS011;9999;48.780;9.146;2022-07-22T08:02:07;4.30;;;3.30;;
7511;SDS011;9999;48.780;9.146;2022-07-22T08:04:34;4.72;;;3.10;;
7511;SDS011;9999;48.780;9.146;2022-07-22T08:07:04;3.67;;;3.25;;
7511;SDS011;9999;48.780;9.146;2022-07-22T08:09:32;4.55;;;3.33;;
7511;SDS011;9999;48.780;9.146;2022-07-22T08:12:02;6.00;;;3.70;;
7511;SDS011;9999;48.780;9.146;2022-07-22T08:14:39;5.47;;;3.30;;
7511;SDS011;9999;48.780;9.146;2022-07-22T08:17:23;4.68;;;3.85;;
7511;SDS011;9999;48.780;9.146;2022-07-22T08:19:50;5.93;;;3.20;;
7511;SDS011;9999;48.780;9.146;2022-07-22T08:22:18;4.55;;;3.63;;
7511;SDS011;9999;48.780;9.146;2022-07-22T08:24:47;5.38;;;3.75;;
7511;SDS011;9999;48.780;9.146;2022-07-22T08:27:15;7.60;;;3.97;;
7511;SDS011;9999;48.780;9.146;2022-07-22T08:29:43;8.48;;;4.00;;
7511;SDS011;9999;48.780;9.146;2022-07-22T08:32:09;6.35;;;3.67;;
7511;SDS011;9999;48.780;9.146;2022-07-22T08:34:36;4.32;;;3.60;;
7511;SDS011;9999;48.780;9.146;2022-07-22T08:37:04;4.97;;;3.75;;
7511;SDS011;9999;48.780;9.146;2022-07-22T08:39:32;6.13;;;4.28;;
7511;SDS011;9999;48.780;9.146;2022-07-22T08:42:00;6.70;;;3.80;;
7511;SDS011;9999;48.780;9.146;2022-07-22T08:44:28;5.22;;;3.63;;
7511;SDS011;9999;48.780;9.146;2022-07-22T08:46:56;5.82;;;3.08;;
7511;SDS011;9999;48.780;9.146;2022-07-22T08:49:42;4.00;;;3.60;;
7511;SDS011;9999;48.780;9.146;2022-07-22T08:52:31;3.70;;;3.38;;
7511;SDS011;9999;48.780;9.146;2022-07-22T08:55:01;6.20;;;3.70;;
7511;SDS011;9999;48.780;9.146;2022-07-22T08:57:29;3.38;;;2.78;;
7511;SDS011;9999;48.780;9.146;2022-07-22T08:59:59;6.60;;;3.85;;
7511;SDS011;9999;48.780;9.146;2022-07-22T09:02:35;4.68;;;3.10;;
7511;SDS011;9999;48.780;9.146;2022-07-22T09:05:05;6.78;;;3.47;;
7511;SDS011;9999;48.780;9.146;2022-07-22T09:07:33;5.28;;;3.90;;
7511;SDS011;9999;48.780;9.146;2022-07-22T09:10:08;5.53;;;3.28;;
7511;SDS011;9999;48.780;9.146;2022-07-22T09:12:57;4.22;;;3.60;;
7511;SDS011;9999;48.780;9.146;2022-07-22T09:15:47;4.35;;;3.53;;
7511;SDS011;9999;48.780;9.146;2022-07-22T09:18:44;5.28;;;4.05;;
7511;SDS011;9999;48.780;9.146;2022-07-22T09:21:30;4.97;;;3.08;;
7511;SDS011;9999;48.780;9.146;2022-07-22T09:24:07;5.15;;;2.85;;
7511;SDS011;9999;48.780;9.146;2022-07-22T09:26:37;11.20;;;3.70;;
7511;SDS011;9999;48.780;9.146;2022-07-22T09:29:24;9.05;;;3.60;;
7511;SDS011;9999;48.780;9.146;2022-07-22T09:32:15;6.40;;;4.22;;
7511;SDS011;9999;48.780;9.146;2022-07-22T09:35:03;4.35;;;3.00;;
7511;SDS011;9999;48.780;9.146;2022-07-22T09:37:47;5.35;;;3.15;;
7511;SDS011;9999;48.780;9.146;2022-07-22T09:40:15;5.43;;;3.65;;
7511;SDS011;9999;48.780;9.146;2022-07-22T09:42:45;3.85;;;3.45;;
7511;SDS011;9999;48.780;9.146;2022-07-22T09:45:14;4.90;;;3.10;;
7511;SDS011;9999;48.780;9.146;2022-07-22T09:47:41;5.97;;;3.65;;
7511;SDS011;9999;48.780;9.146;2022-07-22T09:50:27;3.45;;;3.15;;
7511;SDS011;9999;48.780;9.146;2022-07-22T09:53:13;4.22;;;3.38;;
7511;SDS011;9999;48.780;9.146;2022-07-22T09:55:49;4.00;;;3.30;;
7511;SDS011;9999;48.780;9.146;2022-07-22T09:58:18;3.90;;;3.42;;
7511;SDS011;9999;48.780;9.146;2022-07-22T10:00:45;5.63;;;3.55;;
7511;SDS011;9999;48.780;9.146;2022-07-22T10:03:17;4.30;;;3.35;;
7511;SDS011;9999;48.780;9.146;2022-07-22T10:05:47;4.55;;;3.10;;
7511;SDS011;9999;48.780;9.146;2022-07-22T10:08:14;5.93;;;3.10;;
7511;SDS011;9999;48.780;9.146;2022-07-22T10:10:41;5.47;;;3.17;;
7511;SDS011;9999;48.780;9.146;2022-07-22T10:13:08;4.78;;;3.30;;
7511;SDS011;9999;48.780;9.146;2022-07-22T10:15:37;4.05;;;3.50;;
7511;SDS011;9999;48.780;9.146;2022-07-22T10:18:06;3.92;;;3.10;;
7511;SDS011;9999;48.780;9.146;2022-07-22T10:20:36;7.85;;;3.30;;
7511;SDS011;9999;48.780;9.146;2022-07-22T10:23:04;3.58;;;3.10;;
7511;SDS011;9999;48.780;9.146;2022-07-22T10:25:33;4.97;;;3.55;;
7511;SDS011;9999;48.780;9.146;2022-07-22T10:28:20;3.60;;;3.20;;
7511;SDS011;9999;48.780;9.146;2022-07-22T10:30:49;4.00;;;3.42;;
7511;SDS011;9999;48.780;9.146;2022-07-22T10:33:16;3.88;;;3.22;;
7511;SDS011;9999;48.780;9.146;2022-07-22T10:35:53;7.38;;;3.45;;
7511;SDS011;9999;48.780;9.146;2022-07-22T10:38:22;3.25;;;2.97;;
7511;SDS011;9999;48.780;9.146;2022-07-22T10:40:50;5.20;;;3.70;;
7511;SDS011;9999;48.780;9.146;2022-07-22T10:43:19;4.97;;;3.58;;
7511;SDS011;9999;48.780;9.146;2022-07-22T10:45:50;3.47;;;2.92;;
7511;SDS011;9999;48.780;9.146;2022-07-22T10:48:19;3.95;;;3.03;;
7511;SDS011;9999;48.780;9.146;2022-07-22T10:50:48;3.72;;;3.00;;
7511;SDS011;9999;48.780;9.146;2022-07-22T10:53:21;5.07;;;3.53;;
7511;SDS011;9999;48.780;9.146;2022-07-22T10:56:00;3.35;;;3.03;;
7511;SDS011;9999;48.780;9.146;2022-07-22T10:58:43;5.20;;;3.50;;
7511;SDS011;9999;48.780;9.146;2022-07-22T11:01:13;3.22;;;2.90;;
7511;SDS011;9999;48.780;9.146;2022-07-22T11:03:43;4.80;;;3.42;;
7511;SDS011;9999;48.780;9.146;2022-07-22T11:06:15;4.57;;;3.83;;
7511;SDS011;9999;48.780;9.146;2022-07-22T11:08:47;4.68;;;3.17;;
7511;SDS011;9999;48.780;9.146;2022-07-22T11:11:15;3.53;;;2.72;;
7511;SDS011;9999;48.780;9.146;2022-07-22T11:13:43;5.70;;;3.15;;
7511;SDS011;9999;48.780;9.146;2022-07-22T11:16:16;3.47;;;2.78;;
7511;SDS011;9999;48.780;9.146;2022-07-22T11:18:45;5.43;;;3.15;;
7511;SDS011;9999;48.780;9.146;2022-07-22T11:21:15;3.75;;;2.80;;
7511;SDS011;9999;48.780;9.146;2022-07-22T11:23:43;4.28;;;3.47;;
7511;SDS011;9999;48.780;9.146;2022-07-22T11:26:10;3.15;;;2.90;;
7511;SDS011;9999;48.780;9.146;2022-07-22T11:28:41;5.93;;;3.00;;
7511;SDS011;9999;48.780;9.146;2022-07-22T11:31:08;3.63;;;3.03;;
7511;SDS011;9999;48.780;9.146;2022-07-22T11:33:38;4.07;;;3.20;;
7511;SDS011;9999;48.780;9.146;2022-07-22T11:36:06;5.78;;;3.75;;
7511;SDS011;9999;48.780;9.146;2022-07-22T11:41:22;9.13;;;3.80;;
7511;SDS011;9999;48.780;9.146;2022-07-22T11:43:49;4.35;;;2.50;;
7511;SDS011;9999;48.780;9.146;2022-07-22T11:46:17;2.83;;;2.55;;
7511;SDS011;9999;48.780;9.146;2022-07-22T11:48:45;2.30;;;2.10;;
7511;SDS011;9999;48.780;9.146;2022-07-22T11:51:12;4.05;;;3.30;;
7511;SDS011;9999;48.780;9.146;2022-07-22T11:53:41;2.72;;;2.22;;
7511;SDS011;9999;48.780;9.146;2022-07-22T11:56:08;3.35;;;2.63;;
7511;SDS011;9999;48.780;9.146;2022-07-22T11:58:37;4.57;;;2.45;;
7511;SDS011;9999;48.780;9.146;2022-07-22T12:01:06;5.25;;;3.30;;
7511;SDS011;9999;48.780;9.146;2022-07-22T12:03:34;3.65;;;2.53;;
7511;SDS011;9999;48.780;9.146;2022-07-22T12:06:04;3.80;;;2.45;;
7511;SDS011;9999;48.780;9.146;2022-07-22T12:08:33;3.28;;;2.38;;
7511;SDS011;9999;48.780;9.146;2022-07-22T12:11:04;2.80;;;2.58;;
7511;SDS011;9999;48.780;9.146;2022-07-22T12:13:31;2.53;;;2.30;;
7511;SDS011;9999;48.780;9.146;2022-07-22T12:15:58;3.55;;;2.70;;
7511;SDS011;9999;48.780;9.146;2022-07-22T12:18:26;2.40;;;2.25;;
7511;SDS011;9999;48.780;9.146;2022-07-22T12:20:54;3.00;;;2.70;;
7511;SDS011;9999;48.780;9.146;2022-07-22T12:23:24;2.53;;;2.33;;
7511;SDS011;9999;48.780;9.146;2022-07-22T12:25:53;2.30;;;2.20;;
7511;SDS011;9999;48.780;9.146;2022-07-22T12:28:22;2.88;;;2.50;;
7511;SDS011;9999;48.780;9.146;2022-07-22T12:30:49;7.30;;;2.92;;
7511;SDS011;9999;48.780;9.146;2022-07-22T12:33:17;2.80;;;2.33;;
7511;SDS011;9999;48.780;9.146;2022-07-22T12:35:57;2.60;;;2.33;;
7511;SDS011;9999;48.780;9.146;2022-07-22T12:38:26;3.20;;;2.90;;
7511;SDS011;9999;48.780;9.146;2022-07-22T12:40:54;12.30;;;3.55;;
7511;SDS011;9999;48.780;9.146;2022-07-22T12:43:23;3.65;;;2.40;;
7511;SDS011;9999;48.780;9.146;2022-07-22T12:45:51;3.17;;;2.63;;
7511;SDS011;9999;48.780;9.146;2022-07-22T12:48:18;3.75;;;3.03;;
7511;SDS011;9999;48.780;9.146;2022-07-22T12:50:53;2.72;;;2.50;;
7511;SDS011;9999;48.780;9.146;2022-07-22T12:53:22;3.08;;;2.20;;
7511;SDS011;9999;48.780;9.146;2022-07-22T12:55:54;2.55;;;2.10;;
7511;SDS011;9999;48.780;9.146;2022-07-22T12:58:23;3.63;;;2.58;;
7511;SDS011;9999;48.780;9.146;2022-07-22T13:00:52;2.40;;;2.00;;
7511;SDS011;9999;48.780;9.146;2022-07-22T13:03:20;4.75;;;2.97;;
7511;SDS011;9999;48.780;9.146;2022-07-22T13:05:51;2.97;;;2.33;;
7511;SDS011;9999;48.780;9.146;2022-07-22T13:08:19;2.88;;;2.53;;
7511;SDS011;9999;48.780;9.146;2022-07-22T13:10:46;3.17;;;2.78;;
7511;SDS011;9999;48.780;9.146;2022-07-22T13:13:15;3.22;;;2.08;;
7511;SDS011;9999;48.780;9.146;2022-07-22T13:15:42;2.95;;;2.58;;
7511;SDS011;9999;48.780;9.146;2022-07-22T13:18:08;3.65;;;2.95;;
7511;SDS011;9999;48.780;9.146;2022-07-22T13:20:35;6.03;;;2.45;;
7511;SDS011;9999;48.780;9.146;2022-07-22T13:23:02;3.42;;;2.53;;
7511;SDS011;9999;48.780;9.146;2022-07-22T13:25:29;2.75;;;2.22;;
7511;SDS011;9999;48.780;9.146;2022-07-22T13:27:57;2.60;;;2.40;;
7511;SDS011;9999;48.780;9.146;2022-07-22T13:30:26;2.58;;;2.25;;
7511;SDS011;9999;48.780;9.146;2022-07-22T13:32:53;8.50;;;2.80;;
7511;SDS011;9999;48.780;9.146;2022-07-22T13:35:20;3.72;;;2.80;;
7511;SDS011;9999;48.780;9.146;2022-07-22T13:37:47;3.08;;;2.72;;
7511;SDS011;9999;48.780;9.146;2022-07-22T13:40:14;3.25;;;2.55;;
7511;SDS011;9999;48.780;9.146;2022-07-22T13:42:41;3.25;;;2.60;;
7511;SDS011;9999;48.780;9.146;2022-07-22T13:45:08;5.10;;;2.40;;
7511;SDS011;9999;48.780;9.146;2022-07-22T13:47:38;4.22;;;2.85;;
7511;SDS011;9999;48.780;9.146;2022-07-22T13:50:06;4.20;;;2.28;;
7511;SDS011;9999;48.780;9.146;2022-07-22T13:52:33;2.97;;;2.45;;
7511;SDS011;9999;48.780;9.146;2022-07-22T13:55:00;2.92;;;2.63;;
7511;SDS011;9999;48.780;9.146;2022-07-22T13:57:27;4.00;;;2.75;;
7511;SDS011;9999;48.780;9.146;2022-07-22T13:59:54;3.05;;;2.58;;
7511;SDS011;9999;48.780;9.146;2022-07-22T14:02:21;2.70;;;2.40;;
7511;SDS011;9999;48.780;9.146;2022-07-22T14:04:50;3.60;;;3.03;;
7511;SDS011;9999;48.780;9.146;2022-07-22T14:07:16;4.15;;;2.50;;
7511;SDS011;9999;48.780;9.146;2022-07-22T14:09:43;3.35;;;2.55;;
7511;SDS011;9999;48.780;9.146;2022-07-22T14:12:10;2.55;;;2.35;;
7511;SDS011;9999;48.780;9.146;2022-07-22T14:14:37;2.63;;;2.20;;
7511;SDS011;9999;48.780;9.146;2022-07-22T14:17:04;2.55;;;2.35;;
7511;SDS011;9999;48.780;9.146;2022-07-22T14:19:31;2.38;;;2.17;;
7511;SDS011;9999;48.780;9.146;2022-07-22T14:21:59;3.30;;;2.83;;
7511;SDS011;9999;48.780;9.146;2022-07-22T14:24:26;1.88;;;1.77;;
7511;SDS011;9999;48.780;9.146;2022-07-22T14:26:52;2.55;;;2.33;;
7511;SDS011;9999;48.780;9.146;2022-07-22T14:29:19;3.08;;;2.72;;
7511;SDS011;9999;48.780;9.146;2022-07-22T14:31:46;2.97;;;2.50;;
7511;SDS011;9999;48.780;9.146;2022-07-22T14:34:13;3.92;;;2.58;;
7511;SDS011;9999;48.780;9.146;2022-07-22T14:36:40;3.85;;;2.58;;
7511;SDS011;9999;48.780;9.146;2022-07-22T14:39:08;3.03;;;2.72;;
7511;SDS011;9999;48.780;9.146;2022-07-22T14:41:35;2.83;;;2.58;;
7511;SDS011;9999;48.780;9.146;2022-07-22T14:44:02;3.58;;;2.80;;
7511;SDS011;9999;48.780;9.146;2022-07-22T14:46:29;6.63;;;2.70;;
7511;SDS011;9999;48.780;9.146;2022-07-22T14:48:56;3.47;;;2.58;;
7511;SDS011;9999;48.780;9.146;2022-07-22T14:51:23;3.35;;;2.40;;
7511;SDS011;9999;48.780;9.146;2022-07-22T14:53:50;3.97;;;3.35;;
7511;SDS011;9999;48.780;9.146;2022-07-22T14:56:18;2.95;;;2.65;;
7511;SDS011;9999;48.780;9.146;2022-07-22T14:58:45;2.40;;;2.20;;
7511;SDS011;9999;48.780;9.146;2022-07-22T15:01:12;3.67;;;2.53;;
7511;SDS011;9999;48.780;9.146;2022-07-22T15:03:39;2.65;;;2.42;;
7511;SDS011;9999;48.780;9.146;2022-07-22T15:06:06;2.92;;;2.53;;
7511;SDS011;9999;48.780;9.146;2022-07-22T15:08:33;2.28;;;2.10;;
7511;SDS011;9999;48.780;9.146;2022-07-22T15:10:59;3.28;;;2.92;;
7511;SDS011;9999;48.780;9.146;2022-07-22T15:13:28;2.90;;;2.70;;
7511;SDS011;9999;48.780;9.146;2022-07-22T15:15:55;3.80;;;3.30;;
7511;SDS011;9999;48.780;9.146;2022-07-22T15:18:22;3.50;;;2.20;;
7511;SDS011;9999;48.780;9.146;2022-07-22T15:20:50;3.05;;;2.42;;
7511;SDS011;9999;48.780;9.146;2022-07-22T15:23:19;3.50;;;2.83;;
7511;SDS011;9999;48.780;9.146;2022-07-22T15:25:46;2.70;;;2.50;;
7511;SDS011;9999;48.780;9.146;2022-07-22T15:28:12;5.60;;;2.40;;
7511;SDS011;9999;48.780;9.146;2022-07-22T15:30:40;3.45;;;2.60;;